Time;durP1;ratioP1;P1;durP2;ratioP2;P2;SDS_P1;SDS_P2;PMS_P1;PMS_P2;Temp;Humidity;BMP_temperature;BMP_pressure;BME280_temperature;BME280_humidity;BME280_pressure;Samples;Min_cycle;Max_cycle;Signal;HPM_P1;HPM_P2
2022/01/03 00:01:55;;;;;;;;;;;7.20;99.90;;;;;;5041698;28;19925;-50
2022/01/03 00:04:21;;;;;;;;;;;7.10;99.90;;;;;;5061408;28;19925;-50
2022/01/03 00:06:48;;;;;;;;;;;7.00;99.90;;;;;;5050844;28;19971;-50
2022/01/03 00:09:17;;;;;;;;;;;6.80;99.90;;;;;;5044063;28;19925;-50
2022/01/03 00:11:43;;;;;;;;;;;6.80;99.90;;;;;;5052548;28;20338;-51
2022/01/03 00:14:10;;;;;;;;;;;6.80;99.90;;;;;;5053683;28;19924;-50
2022/01/03 00:16:37;;;;;;;;;;;6.70;99.90;;;;;;5054023;28;19925;-50
2022/01/03 00:19:03;;;;;;;;;;;6.70;99.90;;;;;;5053884;28;20456;-50
2022/01/03 00:21:39;;;;;;;;;;;6.70;99.90;;;;;;5054276;28;19937;-50
2022/01/03 00:24:08;;;;;;;;;;;6.60;99.90;;;;;;5053820;28;19925;-50
2022/01/03 00:26:36;;;;;;;;;;;6.70;99.90;;;;;;5052390;28;19925;-51
2022/01/03 00:29:08;;;;;;;;;;;6.80;99.90;;;;;;5053822;28;19951;-51
2022/01/03 00:31:36;;;;;;;;;;;6.70;99.90;;;;;;5048273;28;19928;-50
2022/01/03 00:34:04;;;;;;;;;;;6.90;99.90;;;;;;5054157;28;19925;-50
2022/01/03 00:36:31;;;;;;;;;;;7.20;99.90;;;;;;5053994;28;19925;-50
2022/01/03 00:38:58;;;;;;;;;;;7.30;99.90;;;;;;5053095;28;19982;-50
2022/01/03 00:41:25;;;;;;;;;;;7.20;99.90;;;;;;5053749;28;20386;-50
2022/01/03 00:43:54;;;;;;;;;;;7.20;99.90;;;;;;5053714;28;20002;-50
2022/01/03 00:46:21;;;;;;;;;;;7.40;99.90;;;;;;5053403;28;19978;-50
2022/01/03 00:48:48;;;;;;;;;;;7.60;99.90;;;;;;5053371;28;19986;-51
2022/01/03 00:51:19;;;;;;;;;;;7.60;99.90;;;;;;5053743;28;19925;-51
2022/01/03 00:53:46;;;;;;;;;;;7.50;99.90;;;;;;5053115;28;19925;-51
2022/01/03 00:56:13;;;;;;;;;;;7.50;99.90;;;;;;5053443;28;19978;-50
2022/01/03 00:58:46;;;;;;;;;;;7.30;99.90;;;;;;5052943;28;19924;-50
2022/01/03 01:01:15;;;;;;;;;;;7.40;99.90;;;;;;5048999;28;19929;-51
2022/01/03 01:03:42;;;;;;;;;;;7.20;99.90;;;;;;5053306;28;19978;-51
2022/01/03 01:06:10;;;;;;;;;;;6.90;99.90;;;;;;5053454;28;19925;-50
2022/01/03 01:08:38;;;;;;;;;;;6.70;99.90;;;;;;5052900;28;19925;-50
2022/01/03 01:11:05;;;;;;;;;;;7.20;99.90;;;;;;5052772;28;19925;-50
2022/01/03 01:13:33;;;;;;;;;;;7.30;99.90;;;;;;5052755;28;20404;-50
2022/01/03 01:16:03;;;;;;;;;;;7.30;99.90;;;;;;5048362;28;19925;-50
2022/01/03 01:18:36;;;;;;;;;;;7.20;99.90;;;;;;5053022;28;20046;-50
2022/01/03 01:21:03;;;;;;;;;;;7.00;99.90;;;;;;5052880;28;19928;-50
2022/01/03 01:23:29;;;;;;;;;;;6.70;99.90;;;;;;5052556;28;19925;-50
2022/01/03 01:28:40;;;;;;;;;;;6.30;99.90;;;;;;5052482;28;20009;-50
2022/01/03 01:31:07;;;;;;;;;;;6.00;99.90;;;;;;5052694;28;19925;-51
2022/01/03 01:33:38;;;;;;;;;;;5.80;99.90;;;;;;5052826;28;20349;-51
2022/01/03 01:36:06;;;;;;;;;;;5.60;99.90;;;;;;5052205;28;20002;-51
2022/01/03 01:38:34;;;;;;;;;;;5.60;99.90;;;;;;5052420;28;20456;-50
2022/01/03 01:41:02;;;;;;;;;;;5.60;99.90;;;;;;5052195;28;20395;-50
2022/01/03 01:43:33;;;;;;;;;;;5.80;99.90;;;;;;5052427;28;19978;-51
2022/01/03 01:46:00;;;;;;;;;;;5.70;99.90;;;;;;5052764;28;19925;-51
2022/01/03 01:48:27;;;;;;;;;;;5.60;99.90;;;;;;5052119;28;19925;-50
2022/01/03 01:50:59;;;;;;;;;;;5.60;99.90;;;;;;5051508;28;19987;-50
2022/01/03 01:53:27;;;;;;;;;;;5.60;99.90;;;;;;5052413;28;19925;-51
2022/01/03 01:55:56;;;;;;;;;;;5.50;99.90;;;;;;5051935;28;20322;-50
2022/01/03 01:58:28;;;;;;;;;;;5.60;99.90;;;;;;5052277;28;20376;-50
2022/01/03 02:00:57;;;;;;;;;;;5.60;99.90;;;;;;5051893;28;20607;-50
2022/01/03 02:03:26;;;;;;;;;;;6.10;99.90;;;;;;5051990;28;20394;-50
2022/01/03 02:05:57;;;;;;;;;;;6.70;99.90;;;;;;5052057;28;19932;-50
2022/01/03 02:08:27;;;;;;;;;;;7.00;99.90;;;;;;5052122;28;19925;-50
2022/01/03 02:10:56;;;;;;;;;;;7.10;99.90;;;;;;5051862;28;19971;-50
2022/01/03 02:13:23;;;;;;;;;;;6.90;99.90;;;;;;5052188;28;19928;-50
2022/01/03 02:15:57;;;;;;;;;;;6.70;99.90;;;;;;5051802;28;20394;-50
2022/01/03 02:18:24;;;;;;;;;;;6.40;99.90;;;;;;5051970;28;19924;-50
2022/01/03 02:20:53;;;;;;;;;;;6.30;99.90;;;;;;5052198;28;19924;-50
2022/01/03 02:23:20;;;;;;;;;;;6.60;99.90;;;;;;5052200;28;19999;-50
2022/01/03 02:25:46;;;;;;;;;;;7.00;99.90;;;;;;5051686;28;19978;-50
2022/01/03 02:28:13;;;;;;;;;;;7.10;99.90;;;;;;5051696;28;19929;-50
2022/01/03 02:30:40;;;;;;;;;;;7.00;99.90;;;;;;5052081;28;19925;-50
2022/01/03 02:33:07;;;;;;;;;;;6.80;99.90;;;;;;5032232;28;19925;-50
2022/01/03 02:35:34;;;;;;;;;;;6.60;99.90;;;;;;5032613;28;19925;-50
2022/01/03 02:38:03;;;;;;;;;;;6.40;99.90;;;;;;5040383;28;19924;-50
2022/01/03 02:40:29;;;;;;;;;;;6.20;99.90;;;;;;5051857;28;19925;-50
2022/01/03 02:42:56;;;;;;;;;;;6.10;99.90;;;;;;5052515;28;19925;-50
2022/01/03 02:45:24;;;;;;;;;;;6.00;99.90;;;;;;5052196;28;20295;-50
2022/01/03 02:47:54;;;;;;;;;;;5.90;99.90;;;;;;5052303;28;20354;-50
2022/01/03 02:50:21;;;;;;;;;;;5.90;99.90;;;;;;5052089;28;19970;-50
2022/01/03 02:52:48;;;;;;;;;;;5.90;99.90;;;;;;5052694;28;19924;-50
2022/01/03 02:55:17;;;;;;;;;;;6.10;99.90;;;;;;5053063;28;19925;-50
2022/01/03 02:57:45;;;;;;;;;;;6.30;99.90;;;;;;5053731;28;19978;-50
2022/01/03 03:00:13;;;;;;;;;;;6.40;99.90;;;;;;5052903;28;19979;-50
2022/01/03 03:02:40;;;;;;;;;;;6.40;99.90;;;;;;5054821;28;19970;-50
2022/01/03 03:05:08;;;;;;;;;;;6.40;99.90;;;;;;5060082;28;19986;-51
2022/01/03 03:07:35;;;;;;;;;;;6.40;99.90;;;;;;5075998;28;20290;-50
2022/01/03 03:10:01;;;;;;;;;;;6.30;99.90;;;;;;5059654;28;20467;-51
2022/01/03 03:12:30;;;;;;;;;;;6.10;99.90;;;;;;5055912;28;20386;-50
2022/01/03 03:14:57;;;;;;;;;;;6.20;99.90;;;;;;5055272;28;19925;-50
2022/01/03 03:17:24;;;;;;;;;;;6.40;99.90;;;;;;5055830;28;19982;-50
2022/01/03 03:19:51;;;;;;;;;;;6.40;99.90;;;;;;5055290;28;19925;-50
2022/01/03 03:22:18;;;;;;;;;;;6.30;99.90;;;;;;5055329;28;20020;-50
2022/01/03 03:24:45;;;;;;;;;;;6.30;99.90;;;;;;5054800;28;19925;-50
2022/01/03 03:27:12;;;;;;;;;;;6.30;99.90;;;;;;5054967;28;20349;-49
2022/01/03 03:29:44;;;;;;;;;;;6.80;99.90;;;;;;5051462;28;19929;-50
2022/01/03 03:32:10;;;;;;;;;;;7.10;99.90;;;;;;5055174;28;19924;-50
2022/01/03 03:34:37;;;;;;;;;;;7.10;99.90;;;;;;5055162;28;20348;-50
2022/01/03 03:37:04;;;;;;;;;;;7.20;99.90;;;;;;5055516;28;20386;-50
2022/01/03 03:39:33;;;;;;;;;;;7.10;99.90;;;;;;5054525;28;19970;-50
2022/01/03 03:42:01;;;;;;;;;;;7.30;99.90;;;;;;5049276;28;20379;-50
2022/01/03 03:44:28;;;;;;;;;;;7.20;99.90;;;;;;5050153;28;19929;-50
2022/01/03 03:46:56;;;;;;;;;;;7.10;99.90;;;;;;5053777;28;19947;-50
2022/01/03 03:49:23;;;;;;;;;;;6.90;99.90;;;;;;5034979;28;19987;-50
2022/01/03 03:51:50;;;;;;;;;;;6.90;99.90;;;;;;5046354;28;19979;-50
2022/01/03 03:54:16;;;;;;;;;;;6.80;99.90;;;;;;5054737;28;20031;-50
2022/01/03 03:56:43;;;;;;;;;;;6.80;99.90;;;;;;5054786;28;19928;-50
2022/01/03 03:59:10;;;;;;;;;;;6.80;99.90;;;;;;5054626;28;19986;-50
2022/01/03 04:01:37;;;;;;;;;;;6.80;99.90;;;;;;5054811;28;19928;-50
2022/01/03 04:04:05;;;;;;;;;;;6.90;99.90;;;;;;5054592;28;19933;-50
2022/01/03 04:06:32;;;;;;;;;;;7.10;99.90;;;;;;5054900;28;19925;-50
2022/01/03 04:08:59;;;;;;;;;;;7.50;99.90;;;;;;5054516;28;19925;-50
2022/01/03 04:11:26;;;;;;;;;;;7.60;99.90;;;;;;5054926;28;19980;-50
2022/01/03 04:13:52;;;;;;;;;;;7.60;99.90;;;;;;5054152;28;19931;-50
2022/01/03 04:16:20;;;;;;;;;;;7.40;99.90;;;;;;5055412;28;19955;-54
2022/01/03 04:18:46;;;;;;;;;;;7.20;99.90;;;;;;5058923;28;20362;-50
2022/01/03 04:21:14;;;;;;;;;;;7.10;99.90;;;;;;5065505;28;19925;-50
2022/01/03 04:23:41;;;;;;;;;;;7.00;99.90;;;;;;5088973;22;20398;-49
2022/01/03 04:26:08;;;;;;;;;;;7.00;99.90;;;;;;5074111;28;19924;-49
2022/01/03 04:28:35;;;;;;;;;;;7.00;99.90;;;;;;5073760;28;19929;-49
2022/01/03 04:31:02;;;;;;;;;;;7.00;99.90;;;;;;5073315;28;19924;-48
2022/01/03 04:33:28;;;;;;;;;;;7.00;99.90;;;;;;5073896;28;19925;-48
2022/01/03 04:35:55;;;;;;;;;;;7.00;99.90;;;;;;5073677;28;19929;-49
2022/01/03 04:38:23;;;;;;;;;;;7.00;99.90;;;;;;5065084;28;19940;-49
2022/01/03 04:40:50;;;;;;;;;;;6.90;99.90;;;;;;5039669;28;20391;-48
2022/01/03 04:43:17;;;;;;;;;;;7.00;99.90;;;;;;5033628;28;20379;-49
2022/01/03 04:45:44;;;;;;;;;;;7.00;99.90;;;;;;5053783;28;19978;-49
2022/01/03 04:48:11;;;;;;;;;;;6.90;99.90;;;;;;5053152;28;20364;-49
2022/01/03 04:50:37;;;;;;;;;;;6.80;99.90;;;;;;5053513;28;19924;-48
2022/01/03 04:53:04;;;;;;;;;;;6.80;99.90;;;;;;5067111;28;20355;-49
2022/01/03 04:55:32;;;;;;;;;;;6.80;99.90;;;;;;5073447;28;19924;-47
2022/01/03 04:57:59;;;;;;;;;;;6.80;99.90;;;;;;5073092;28;19970;-48
2022/01/03 05:00:26;;;;;;;;;;;6.80;99.90;;;;;;5071650;28;19929;-50
2022/01/03 05:02:53;;;;;;;;;;;6.80;99.90;;;;;;5073101;28;20432;-48
2022/01/03 05:05:20;;;;;;;;;;;7.00;99.90;;;;;;5073062;28;20336;-49
2022/01/03 05:07:47;;;;;;;;;;;6.90;99.90;;;;;;5053858;28;19996;-49
2022/01/03 05:10:13;;;;;;;;;;;6.90;99.90;;;;;;5053082;28;19924;-49
2022/01/03 05:12:41;;;;;;;;;;;6.90;99.90;;;;;;5067317;28;19978;-49
2022/01/03 05:15:08;;;;;;;;;;;6.90;99.90;;;;;;5072848;28;20354;-48
2022/01/03 05:17:35;;;;;;;;;;;7.00;99.90;;;;;;5072940;28;19924;-48
2022/01/03 05:20:02;;;;;;;;;;;7.10;99.90;;;;;;5072966;28;19929;-50
2022/01/03 05:22:29;;;;;;;;;;;7.10;99.90;;;;;;5071228;28;20398;-49
2022/01/03 05:24:55;;;;;;;;;;;7.00;99.90;;;;;;5071994;28;19924;-49
2022/01/03 05:27:22;;;;;;;;;;;7.00;99.90;;;;;;5063485;28;19929;-49
2022/01/03 05:29:50;;;;;;;;;;;7.20;99.90;;;;;;5052487;28;19932;-49
2022/01/03 05:32:17;;;;;;;;;;;7.40;99.90;;;;;;5054791;28;19982;-50
2022/01/03 05:34:44;;;;;;;;;;;7.50;99.90;;;;;;5072820;28;19977;-48
2022/01/03 05:37:10;;;;;;;;;;;7.60;99.90;;;;;;5072814;28;19958;-49
2022/01/03 05:39:37;;;;;;;;;;;7.70;99.90;;;;;;5066742;28;19974;-49
2022/01/03 05:42:04;;;;;;;;;;;7.70;99.90;;;;;;5052755;28;19928;-48
2022/01/03 05:44:31;;;;;;;;;;;7.70;99.90;;;;;;5058832;28;20332;-49
2022/01/03 05:46:59;;;;;;;;;;;7.80;99.90;;;;;;5070317;28;20394;-48
2022/01/03 05:49:26;;;;;;;;;;;7.90;99.90;;;;;;5031981;28;19979;-48
2022/01/03 05:51:53;;;;;;;;;;;7.70;99.90;;;;;;5032527;28;20457;-48
2022/01/03 05:54:19;;;;;;;;;;;7.60;99.90;;;;;;5032290;28;19924;-48
2022/01/03 05:56:46;;;;;;;;;;;7.50;99.90;;;;;;5046608;28;19929;-49
2022/01/03 05:59:13;;;;;;;;;;;7.20;99.90;;;;;;5070567;28;19929;-49
2022/01/03 06:01:41;;;;;;;;;;;7.20;99.90;;;;;;5071597;28;19924;-49
2022/01/03 06:04:19;;;;;;;;;;;7.10;99.90;;;;;;5072155;28;20418;-49
2022/01/03 06:06:55;;;;;;;;;;;7.10;99.90;;;;;;5052496;28;19979;-49
2022/01/03 06:09:23;;;;;;;;;;;7.30;99.90;;;;;;5051723;28;19932;-49
2022/01/03 06:11:50;;;;;;;;;;;7.40;99.90;;;;;;5053299;28;19936;-48
2022/01/03 06:14:17;;;;;;;;;;;7.50;99.90;;;;;;5072066;28;19931;-48
2022/01/03 06:16:44;;;;;;;;;;;7.50;99.90;;;;;;5051920;28;19925;-49
2022/01/03 06:19:13;;;;;;;;;;;7.30;99.90;;;;;;5065424;28;19924;-48
2022/01/03 06:21:41;;;;;;;;;;;7.20;99.90;;;;;;5059686;28;19986;-48
2022/01/03 06:24:09;;;;;;;;;;;7.20;99.90;;;;;;5050731;28;20019;-48
2022/01/03 06:26:36;;;;;;;;;;;7.40;99.90;;;;;;5057497;28;19925;-48
2022/01/03 06:29:03;;;;;;;;;;;7.40;99.90;;;;;;5058591;28;19970;-50
2022/01/03 06:31:30;;;;;;;;;;;7.40;99.90;;;;;;5061102;28;19925;-49
2022/01/03 06:33:57;;;;;;;;;;;7.50;99.90;;;;;;5061756;28;19995;-49
2022/01/03 06:36:25;;;;;;;;;;;7.70;99.90;;;;;;5054128;28;20294;-48
2022/01/03 06:38:52;;;;;;;;;;;8.20;99.90;;;;;;5055580;28;19924;-48
2022/01/03 06:41:18;;;;;;;;;;;8.30;99.90;;;;;;5055018;28;19929;-48
2022/01/03 06:43:45;;;;;;;;;;;8.50;99.90;;;;;;5054845;28;19986;-49
2022/01/03 06:46:12;;;;;;;;;;;8.60;99.90;;;;;;5061311;28;20348;-49
2022/01/03 06:48:39;;;;;;;;;;;8.70;99.90;;;;;;5067015;28;19924;-49
2022/01/03 06:51:06;;;;;;;;;;;8.70;99.90;;;;;;5061753;28;20348;-48
2022/01/03 06:53:34;;;;;;;;;;;8.70;99.90;;;;;;5054349;28;19925;-49
2022/01/03 06:56:01;;;;;;;;;;;8.70;99.90;;;;;;5053715;28;19929;-48
2022/01/03 06:58:27;;;;;;;;;;;8.80;99.90;;;;;;5063695;28;19994;-49
2022/01/03 07:00:54;;;;;;;;;;;8.80;99.90;;;;;;5055846;28;19978;-48
2022/01/03 07:03:21;;;;;;;;;;;8.80;99.90;;;;;;5055099;28;19971;-49
2022/01/03 07:05:48;;;;;;;;;;;9.00;99.90;;;;;;5064731;28;19929;-48
2022/01/03 07:08:14;;;;;;;;;;;9.10;99.90;;;;;;5067540;28;20045;-46
2022/01/03 07:10:42;;;;;;;;;;;9.00;99.90;;;;;;5071046;28;19925;-47
2022/01/03 07:13:09;;;;;;;;;;;9.10;99.90;;;;;;5055074;28;19925;-48
2022/01/03 07:21:04;;;;;;;;;;;9.20;99.90;;;;;;5047623;28;19940;-47
2022/01/03 07:23:31;;;;;;;;;;;9.10;99.90;;;;;;5060913;28;19936;-47
2022/01/03 07:25:59;;;;;;;;;;;9.00;99.90;;;;;;5074955;28;19928;-47
2022/01/03 07:28:26;;;;;;;;;;;9.20;99.90;;;;;;5058316;28;20432;-47
2022/01/03 07:30:53;;;;;;;;;;;9.20;99.90;;;;;;5064339;28;19928;-49
2022/01/03 07:33:20;;;;;;;;;;;9.40;99.90;;;;;;5074760;28;19970;-47
2022/01/03 07:35:47;;;;;;;;;;;9.60;99.90;;;;;;5060389;28;19928;-50
2022/01/03 07:38:13;;;;;;;;;;;9.70;99.90;;;;;;5054486;28;19925;-48
2022/01/03 07:40:41;;;;;;;;;;;9.70;99.90;;;;;;5062898;28;20003;-49
2022/01/03 07:43:09;;;;;;;;;;;9.50;99.90;;;;;;5054579;28;19931;-49
2022/01/03 07:45:36;;;;;;;;;;;9.40;99.90;;;;;;5054526;28;19929;-49
2022/01/03 07:48:02;;;;;;;;;;;9.50;99.90;;;;;;5070605;28;19986;-48
2022/01/03 07:50:29;;;;;;;;;;;9.50;99.90;;;;;;5034697;28;19983;-49
2022/01/03 07:52:58;;;;;;;;;;;9.60;99.90;;;;;;5034496;28;20387;-48
2022/01/03 07:55:26;;;;;;;;;;;9.50;99.90;;;;;;5048553;28;20015;-49
2022/01/03 07:57:53;;;;;;;;;;;9.40;99.90;;;;;;5063227;28;19931;-49
2022/01/03 08:00:21;;;;;;;;;;;9.40;99.90;;;;;;5052608;28;19928;-50
2022/01/03 08:02:51;;;;;;;;;;;9.50;99.90;;;;;;5051514;28;19979;-48
2022/01/03 08:05:18;;;;;;;;;;;9.70;99.90;;;;;;5034273;28;19980;-47
2022/01/03 08:07:45;;;;;;;;;;;9.70;99.90;;;;;;5047205;28;20477;-46
2022/01/03 08:10:13;;;;;;;;;;;9.90;99.90;;;;;;5057213;28;20019;-48
2022/01/03 08:12:40;;;;;;;;;;;10.10;99.90;;;;;;5058577;28;20297;-47
2022/01/03 08:15:08;;;;;;;;;;;10.20;99.90;;;;;;5061275;28;19931;-48
2022/01/03 08:17:36;;;;;;;;;;;10.30;99.90;;;;;;5055425;28;19925;-49
2022/01/03 08:20:04;;;;;;;;;;;10.30;99.90;;;;;;5054309;28;20023;-48
2022/01/03 08:22:31;;;;;;;;;;;10.40;99.90;;;;;;5058785;28;19931;-48
2022/01/03 08:24:58;;;;;;;;;;;10.60;99.90;;;;;;5073347;28;19962;-50
2022/01/03 08:27:25;;;;;;;;;;;10.70;99.90;;;;;;5055659;28;19929;-47
2022/01/03 08:29:53;;;;;;;;;;;10.80;99.90;;;;;;5053488;28;19932;-48
2022/01/03 08:32:20;;;;;;;;;;;10.90;99.90;;;;;;5053439;28;19925;-48
2022/01/03 08:34:50;;;;;;;;;;;10.90;99.90;;;;;;5061825;28;20472;-48
2022/01/03 08:37:17;;;;;;;;;;;11.00;99.90;;;;;;5057568;28;20019;-48
2022/01/03 08:39:44;;;;;;;;;;;11.00;99.90;;;;;;5050878;28;19990;-48
2022/01/03 08:42:10;;;;;;;;;;;11.00;99.90;;;;;;5033367;28;20291;-47
2022/01/03 08:44:37;;;;;;;;;;;10.90;99.90;;;;;;5032979;28;19924;-48
2022/01/03 08:47:04;;;;;;;;;;;10.70;99.90;;;;;;5033307;28;19928;-49
2022/01/03 08:49:31;;;;;;;;;;;10.60;99.90;;;;;;5032863;28;19979;-48
2022/01/03 08:52:01;;;;;;;;;;;10.60;99.90;;;;;;5035439;28;19933;-49
2022/01/03 08:54:28;;;;;;;;;;;10.70;99.90;;;;;;5052602;28;20378;-47
2022/01/03 08:56:54;;;;;;;;;;;10.80;99.90;;;;;;5060010;28;19979;-48
2022/01/03 08:59:21;;;;;;;;;;;10.80;99.90;;;;;;5052731;28;19925;-48
2022/01/03 09:01:48;;;;;;;;;;;10.70;99.90;;;;;;5056787;28;19924;-48
2022/01/03 09:04:15;;;;;;;;;;;10.80;99.90;;;;;;5052584;28;19925;-47
2022/01/03 09:09:47;;;;;;;;;;;10.80;99.90;;;;;;5059311;28;19921;-49
2022/01/03 09:12:14;;;;;;;;;;;10.80;99.90;;;;;;5072630;28;19983;-49
2022/01/03 09:14:41;;;;;;;;;;;10.80;99.90;;;;;;5072557;28;19925;-49
2022/01/03 09:17:07;;;;;;;;;;;10.80;99.90;;;;;;5066869;28;20448;-48
2022/01/03 09:19:35;;;;;;;;;;;10.80;99.90;;;;;;5046245;28;19979;-48
2022/01/03 09:22:10;;;;;;;;;;;10.90;99.90;;;;;;5046352;28;19935;-48
2022/01/03 09:24:46;;;;;;;;;;;11.00;99.90;;;;;;5051615;28;20011;-48
2022/01/03 09:30:01;;;;;;;;;;;11.30;99.90;;;;;;5051380;28;19936;-49
2022/01/03 09:32:27;;;;;;;;;;;11.50;99.90;;;;;;5051785;28;19929;-49
2022/01/03 09:34:54;;;;;;;;;;;11.60;99.90;;;;;;5051866;28;19925;-47
2022/01/03 09:37:22;;;;;;;;;;;11.80;99.90;;;;;;5051539;28;19925;-48
2022/01/03 09:39:49;;;;;;;;;;;11.90;99.90;;;;;;5052960;28;19925;-47
2022/01/03 09:42:20;;;;;;;;;;;11.90;99.90;;;;;;5052022;28;19928;-47
2022/01/03 09:44:48;;;;;;;;;;;11.90;99.90;;;;;;5051185;28;19928;-48
2022/01/03 09:47:16;;;;;;;;;;;12.00;99.90;;;;;;5051978;28;20264;-49
2022/01/03 09:49:43;;;;;;;;;;;11.90;99.90;;;;;;5050818;28;19970;-50
2022/01/03 09:52:10;;;;;;;;;;;11.80;99.90;;;;;;5050891;28;19983;-50
2022/01/03 09:54:37;;;;;;;;;;;11.60;99.90;;;;;;5035904;28;19971;-49
2022/01/03 09:57:05;;;;;;;;;;;11.60;99.90;;;;;;5042678;28;19962;-50
2022/01/03 09:59:34;;;;;;;;;;;11.70;99.90;;;;;;5052033;28;19948;-49
2022/01/03 10:02:01;;;;;;;;;;;11.70;99.90;;;;;;5051491;28;19933;-50
2022/01/03 10:04:27;;;;;;;;;;;11.80;99.90;;;;;;5051141;28;20023;-49
2022/01/03 10:06:54;;;;;;;;;;;11.90;99.90;;;;;;5051162;28;19928;-51
2022/01/03 10:09:22;;;;;;;;;;;12.00;99.90;;;;;;5051252;28;19990;-49
2022/01/03 10:11:49;;;;;;;;;;;12.10;99.90;;;;;;5050588;28;19924;-51
2022/01/03 10:14:16;;;;;;;;;;;12.20;99.90;;;;;;5031586;28;19925;-49
2022/01/03 10:16:46;;;;;;;;;;;12.40;99.90;;;;;;5040375;28;19925;-52
2022/01/03 10:19:12;;;;;;;;;;;12.50;99.90;;;;;;5050857;28;20488;-50
2022/01/03 10:21:42;;;;;;;;;;;12.50;99.90;;;;;;5050321;28;20210;-50
2022/01/03 10:24:09;;;;;;;;;;;12.50;99.90;;;;;;5079369;22;20262;-50
2022/01/03 10:26:38;;;;;;;;;;;12.40;99.90;;;;;;5069443;28;19978;-51
2022/01/03 10:29:11;;;;;;;;;;;12.40;99.90;;;;;;5062887;28;19928;-51
2022/01/03 10:31:38;;;;;;;;;;;12.10;99.90;;;;;;5064464;28;19978;-52
2022/01/03 10:34:08;;;;;;;;;;;12.00;99.90;;;;;;5069101;28;20079;-50
2022/01/03 10:36:36;;;;;;;;;;;12.20;99.90;;;;;;5069600;28;19928;-52
2022/01/03 10:39:11;;;;;;;;;;;12.10;99.90;;;;;;5068323;28;20036;-51
2022/01/03 10:41:38;;;;;;;;;;;12.00;99.90;;;;;;5069429;28;19986;-51
2022/01/03 10:44:05;;;;;;;;;;;11.90;99.90;;;;;;5069345;28;20530;-51
2022/01/03 10:46:33;;;;;;;;;;;11.70;99.90;;;;;;5064950;28;19932;-50
2022/01/03 10:49:08;;;;;;;;;;;11.80;99.90;;;;;;5069581;28;19929;-50
2022/01/03 10:51:35;;;;;;;;;;;11.70;99.90;;;;;;5070121;28;19924;-51
2022/01/03 10:54:02;;;;;;;;;;;11.70;99.90;;;;;;5086080;28;19928;-51
2022/01/03 10:56:30;;;;;;;;;;;11.60;99.90;;;;;;5070006;28;19936;-52
2022/01/03 10:58:58;;;;;;;;;;;11.60;99.90;;;;;;5068549;28;19924;-51
2022/01/03 11:01:26;;;;;;;;;;;11.60;99.90;;;;;;5068427;28;20420;-51
2022/01/03 11:03:54;;;;;;;;;;;11.50;99.90;;;;;;5066912;28;19948;-52
2022/01/03 11:06:46;;;;;;;;;;;11.60;99.90;;;;;;5068617;28;19932;-52
2022/01/03 11:12:16;;;;;;;;;;;11.60;99.90;;;;;;5069273;28;19947;-52
2022/01/03 11:14:43;;;;;;;;;;;11.60;99.90;;;;;;5068481;28;20011;-52
2022/01/03 11:17:22;;;;;;;;;;;11.50;99.90;;;;;;5068200;28;19929;-50
2022/01/03 11:19:49;;;;;;;;;;;11.50;99.90;;;;;;5067291;28;19947;-52
2022/01/03 11:22:31;;;;;;;;;;;11.60;99.90;;;;;;5069024;28;20365;-52
2022/01/03 11:24:59;;;;;;;;;;;11.60;99.90;;;;;;5071601;28;19924;-52
2022/01/03 11:27:29;;;;;;;;;;;11.70;99.90;;;;;;5072427;28;20034;-52
2022/01/03 11:29:56;;;;;;;;;;;11.70;99.90;;;;;;5070481;28;20011;-52
2022/01/03 11:32:23;;;;;;;;;;;11.60;99.90;;;;;;5071135;28;19962;-52
2022/01/03 11:34:50;;;;;;;;;;;11.80;99.90;;;;;;5063030;28;20410;-51
2022/01/03 11:37:17;;;;;;;;;;;11.70;99.90;;;;;;5071938;28;19928;-52
2022/01/03 11:39:48;;;;;;;;;;;11.80;99.90;;;;;;5069718;28;20374;-50
2022/01/03 11:42:16;;;;;;;;;;;11.80;99.90;;;;;;5059612;28;19932;-52
2022/01/03 11:44:43;;;;;;;;;;;11.90;99.90;;;;;;5070876;28;19932;-50
2022/01/03 11:47:10;;;;;;;;;;;11.90;99.90;;;;;;5066836;28;20705;-51
2022/01/03 11:49:37;;;;;;;;;;;11.80;99.90;;;;;;5070289;28;19925;-51
2022/01/03 11:52:09;;;;;;;;;;;11.80;99.90;;;;;;5071383;28;20015;-52
2022/01/03 11:54:36;;;;;;;;;;;11.80;99.90;;;;;;5071938;28;20015;-51
2022/01/03 11:57:08;;;;;;;;;;;11.90;99.90;;;;;;5071961;28;20358;-51
2022/01/03 12:05:14;;;;;;;;;;;12.00;99.90;;;;;;5060283;28;20057;-51
2022/01/03 12:07:58;;;;;;;;;;;11.90;99.90;;;;;;5071538;28;19925;-51
2022/01/03 12:10:28;;;;;;;;;;;12.00;99.90;;;;;;5072236;28;19928;-51
2022/01/03 12:13:01;;;;;;;;;;;11.90;99.90;;;;;;5072010;28;19951;-51
2022/01/03 12:15:35;;;;;;;;;;;12.00;99.90;;;;;;5070444;28;19951;-50
2022/01/03 12:18:01;;;;;;;;;;;12.10;99.90;;;;;;5070749;28;19928;-51
2022/01/03 12:20:38;;;;;;;;;;;12.10;99.90;;;;;;5071293;28;19924;-51
2022/01/03 12:23:05;;;;;;;;;;;12.20;99.90;;;;;;5071795;28;19970;-51
2022/01/03 12:25:33;;;;;;;;;;;12.40;99.90;;;;;;5071354;28;20423;-51
2022/01/03 12:28:02;;;;;;;;;;;12.40;99.90;;;;;;5079035;28;19924;-51
2022/01/03 12:30:30;;;;;;;;;;;12.40;99.90;;;;;;5066624;28;20013;-51
2022/01/03 12:33:24;;;;;;;;;;;12.30;99.90;;;;;;5070437;28;19924;-51
2022/01/03 12:36:12;;;;;;;;;;;12.20;99.90;;;;;;5071067;28;19925;-51
2022/01/03 12:38:39;;;;;;;;;;;12.20;99.90;;;;;;5070771;28;19929;-51
2022/01/03 12:41:06;;;;;;;;;;;12.20;99.90;;;;;;5071137;28;20015;-51
2022/01/03 12:43:46;;;;;;;;;;;12.30;99.90;;;;;;5070825;28;20409;-51
2022/01/03 12:46:23;;;;;;;;;;;12.10;99.90;;;;;;5071376;28;19940;-51
2022/01/03 12:48:51;;;;;;;;;;;12.10;99.90;;;;;;5070051;28;19924;-52
2022/01/03 12:51:20;;;;;;;;;;;12.10;99.90;;;;;;5070543;28;20015;-52
2022/01/03 12:53:49;;;;;;;;;;;12.00;99.90;;;;;;5070618;28;20038;-52
2022/01/03 12:56:17;;;;;;;;;;;12.10;99.90;;;;;;5070749;28;19991;-52
2022/01/03 12:58:45;;;;;;;;;;;12.40;99.90;;;;;;5068921;28;20020;-53
2022/01/03 13:01:23;;;;;;;;;;;12.30;99.90;;;;;;5068632;28;19974;-52
2022/01/03 13:03:50;;;;;;;;;;;12.40;99.90;;;;;;5070607;28;19930;-51
2022/01/03 13:06:19;;;;;;;;;;;12.60;99.90;;;;;;5070680;28;19986;-52
2022/01/03 13:09:01;;;;;;;;;;;12.40;99.90;;;;;;5070586;28;19997;-51
2022/01/03 13:11:29;;;;;;;;;;;12.40;99.90;;;;;;5070866;28;19929;-52
2022/01/03 13:13:56;;;;;;;;;;;12.30;99.90;;;;;;5070129;28;19924;-52
2022/01/03 13:16:24;;;;;;;;;;;12.30;99.90;;;;;;5070621;28;20427;-51
2022/01/03 13:18:52;;;;;;;;;;;12.30;99.90;;;;;;5070080;28;20372;-51
2022/01/03 13:21:20;;;;;;;;;;;12.40;99.90;;;;;;5070641;28;20005;-52
2022/01/03 13:23:53;;;;;;;;;;;12.40;99.90;;;;;;5069688;28;20382;-51
2022/01/03 13:26:21;;;;;;;;;;;12.40;99.90;;;;;;5070342;28;19929;-52
2022/01/03 13:28:48;;;;;;;;;;;12.40;99.90;;;;;;5069899;28;19994;-52
2022/01/03 13:31:15;;;;;;;;;;;12.40;99.90;;;;;;5070319;28;20032;-52
2022/01/03 13:33:42;;;;;;;;;;;12.40;99.90;;;;;;5070164;28;19925;-52
2022/01/03 13:36:12;;;;;;;;;;;12.40;99.90;;;;;;5069354;28;19925;-52
2022/01/03 13:38:40;;;;;;;;;;;12.40;99.90;;;;;;5058511;28;20393;-53
2022/01/03 13:41:11;;;;;;;;;;;12.50;99.90;;;;;;5065513;28;19929;-53
2022/01/03 13:43:40;;;;;;;;;;;12.40;99.90;;;;;;5060764;28;19990;-52
2022/01/03 13:51:36;;;;;;;;;;;12.40;99.90;;;;;;5066413;28;20309;-51
2022/01/03 13:54:05;;;;;;;;;;;12.40;99.90;;;;;;5070391;28;19925;-52
2022/01/03 13:56:40;;;;;;;;;;;12.40;99.90;;;;;;5070133;28;19994;-52
2022/01/03 13:59:07;;;;;;;;;;;12.50;99.90;;;;;;5066152;28;20342;-52
2022/01/03 14:01:34;;;;;;;;;;;12.60;99.90;;;;;;5069531;28;19978;-52
2022/01/03 14:04:01;;;;;;;;;;;12.60;99.90;;;;;;5068893;28;19940;-51
2022/01/03 14:06:28;;;;;;;;;;;12.50;99.90;;;;;;5050056;28;19925;-52
2022/01/03 14:08:55;;;;;;;;;;;12.40;99.90;;;;;;5058699;28;19928;-52
2022/01/03 14:11:26;;;;;;;;;;;12.40;99.90;;;;;;5069735;28;19974;-52
2022/01/03 14:13:53;;;;;;;;;;;12.40;99.90;;;;;;5069614;28;19979;-52
2022/01/03 14:16:23;;;;;;;;;;;12.40;99.90;;;;;;5068971;28;19929;-51
2022/01/03 14:18:51;;;;;;;;;;;12.30;99.90;;;;;;5068870;28;20011;-52
2022/01/03 14:21:18;;;;;;;;;;;12.30;99.90;;;;;;5073667;28;19932;-51
2022/01/03 14:23:46;;;;;;;;;;;12.50;99.90;;;;;;5049346;28;19928;-51
2022/01/03 14:26:14;;;;;;;;;;;12.40;99.90;;;;;;5049278;28;20393;-51
2022/01/03 14:28:43;;;;;;;;;;;12.30;99.90;;;;;;5068733;28;20378;-52
2022/01/03 14:31:11;;;;;;;;;;;12.40;99.90;;;;;;5070243;28;19928;-51
2022/01/03 14:33:39;;;;;;;;;;;12.20;99.90;;;;;;5069111;28;20405;-52
2022/01/03 14:36:12;;;;;;;;;;;12.20;99.90;;;;;;5068589;28;19968;-51
2022/01/03 14:38:40;;;;;;;;;;;12.30;99.90;;;;;;5069002;28;20612;-52
2022/01/03 14:41:13;;;;;;;;;;;12.10;99.90;;;;;;5068662;28;20364;-52
2022/01/03 14:43:40;;;;;;;;;;;11.90;99.90;;;;;;5068893;28;19928;-52
2022/01/03 14:46:09;;;;;;;;;;;11.80;99.90;;;;;;5069469;28;19995;-52
2022/01/03 14:48:36;;;;;;;;;;;11.60;99.90;;;;;;5068342;28;20005;-52
2022/01/03 14:51:06;;;;;;;;;;;11.60;99.90;;;;;;5068536;28;19969;-52
2022/01/03 14:53:33;;;;;;;;;;;11.70;99.90;;;;;;5069304;28;19924;-52
2022/01/03 14:56:00;;;;;;;;;;;11.70;99.90;;;;;;5082804;28;19993;-52
2022/01/03 14:58:27;;;;;;;;;;;11.70;99.90;;;;;;5073364;28;19928;-52